sensor_id;sensor_type;location;lat;lon;timestamp;temperature;humidity
55091;DHT22;40985;53.180;5.800;2022-07-06T00:00:43;14.40;99.90
55091;DHT22;40985;53.180;5.800;2022-07-06T00:03:08;14.40;99.90
55091;DHT22;40985;53.180;5.800;2022-07-06T00:05:34;14.40;99.90
55091;DHT22;40985;53.180;5.800;2022-07-06T00:08:00;14.40;99.90
55091;DHT22;40985;53.180;5.800;2022-07-06T00:10:25;14.40;99.90
55091;DHT22;40985;53.180;5.800;2022-07-06T00:12:51;14.40;99.90
55091;DHT22;40985;53.180;5.800;2022-07-06T00:15:17;14.40;99.90
55091;DHT22;40985;53.180;5.800;2022-07-06T00:17:42;14.40;99.90
55091;DHT22;40985;53.180;5.800;2022-07-06T00:20:08;14.40;99.90
55091;DHT22;40985;53.180;5.800;2022-07-06T00:22:34;14.40;99.90
55091;DHT22;40985;53.180;5.800;2022-07-06T00:25:00;14.40;99.90
55091;DHT22;40985;53.180;5.800;2022-07-06T00:27:25;14.30;99.90
55091;DHT22;40985;53.180;5.800;2022-07-06T00:29:51;14.30;99.90
55091;DHT22;40985;53.180;5.800;2022-07-06T00:32:17;14.30;99.90
55091;DHT22;40985;53.180;5.800;2022-07-06T00:34:42;14.30;99.90
55091;DHT22;40985;53.180;5.800;2022-07-06T00:37:08;14.30;99.90
55091;DHT22;40985;53.180;5.800;2022-07-06T00:39:34;14.30;99.90
55091;DHT22;40985;53.180;5.800;2022-07-06T00:42:00;14.30;99.90
55091;DHT22;40985;53.180;5.800;2022-07-06T00:44:26;14.30;99.90
55091;DHT22;40985;53.180;5.800;2022-07-06T00:46:52;14.30;99.90
55091;DHT22;40985;53.180;5.800;2022-07-06T00:49:17;14.20;99.90
55091;DHT22;40985;53.180;5.800;2022-07-06T00:52:03;14.20;99.90
55091;DHT22;40985;53.180;5.800;2022-07-06T00:54:31;14.20;99.90
55091;DHT22;40985;53.180;5.800;2022-07-06T00:56:57;14.20;99.90
55091;DHT22;40985;53.180;5.800;2022-07-06T01:06:46;14.20;99.90
55091;DHT22;40985;53.180;5.800;2022-07-06T01:09:12;14.30;99.90
55091;DHT22;40985;53.180;5.800;2022-07-06T01:11:38;14.30;99.90
55091;DHT22;40985;53.180;5.800;2022-07-06T01:14:04;14.30;99.90
55091;DHT22;40985;53.180;5.800;2022-07-06T01:16:30;14.30;99.90
55091;DHT22;40985;53.180;5.800;2022-07-06T01:18:56;14.30;99.90
55091;DHT22;40985;53.180;5.800;2022-07-06T01:21:22;14.30;99.90
55091;DHT22;40985;53.180;5.800;2022-07-06T01:23:48;14.30;99.90
55091;DHT22;40985;53.180;5.800;2022-07-06T01:26:19;14.30;99.90
55091;DHT22;40985;53.180;5.800;2022-07-06T01:28:45;14.30;99.90
55091;DHT22;40985;53.180;5.800;2022-07-06T01:31:23;14.30;99.90
55091;DHT22;40985;53.180;5.800;2022-07-06T01:33:51;14.30;99.90
55091;DHT22;40985;53.180;5.800;2022-07-06T01:36:17;14.30;99.90
55091;DHT22;40985;53.180;5.800;2022-07-06T01:38:54;14.30;99.90
55091;DHT22;40985;53.180;5.800;2022-07-06T01:41:20;14.30;99.90
55091;DHT22;40985;53.180;5.800;2022-07-06T01:43:46;14.20;99.90
55091;DHT22;40985;53.180;5.800;2022-07-06T01:46:13;14.10;99.90
55091;DHT22;40985;53.180;5.800;2022-07-06T01:48:39;14.10;99.90
55091;DHT22;40985;53.180;5.800;2022-07-06T01:51:05;14.00;99.90
55091;DHT22;40985;53.180;5.800;2022-07-06T01:53:31;14.00;99.90
55091;DHT22;40985;53.180;5.800;2022-07-06T01:55:57;14.00;99.90
55091;DHT22;40985;53.180;5.800;2022-07-06T01:58:22;14.10;99.90
55091;DHT22;40985;53.180;5.800;2022-07-06T02:00:49;14.00;99.90
55091;DHT22;40985;53.180;5.800;2022-07-06T02:03:14;14.00;99.90
55091;DHT22;40985;53.180;5.800;2022-07-06T02:05:40;14.00;99.90
55091;DHT22;40985;53.180;5.800;2022-07-06T02:08:06;14.00;99.90
55091;DHT22;40985;53.180;5.800;2022-07-06T02:10:32;14.00;99.90
55091;DHT22;40985;53.180;5.800;2022-07-06T02:12:57;14.00;99.90
55091;DHT22;40985;53.180;5.800;2022-07-06T02:15:23;14.00;99.90
55091;DHT22;40985;53.180;5.800;2022-07-06T02:17:49;14.00;99.90
55091;DHT22;40985;53.180;5.800;2022-07-06T02:20:14;14.00;99.90
55091;DHT22;40985;53.180;5.800;2022-07-06T02:22:40;14.00;99.90
55091;DHT22;40985;53.180;5.800;2022-07-06T02:25:06;14.00;99.90
55091;DHT22;40985;53.180;5.800;2022-07-06T02:27:32;13.90;99.90
55091;DHT22;40985;53.180;5.800;2022-07-06T02:29:57;14.00;99.90
55091;DHT22;40985;53.180;5.800;2022-07-06T02:32:23;13.90;99.90
55091;DHT22;40985;53.180;5.800;2022-07-06T02:34:49;13.90;99.90
55091;DHT22;40985;53.180;5.800;2022-07-06T02:37:14;13.80;99.90
55091;DHT22;40985;53.180;5.800;2022-07-06T02:39:40;13.80;99.90
55091;DHT22;40985;53.180;5.800;2022-07-06T02:42:06;13.80;99.90
55091;DHT22;40985;53.180;5.800;2022-07-06T02:44:31;13.70;99.90
55091;DHT22;40985;53.180;5.800;2022-07-06T02:46:57;13.70;99.90
55091;DHT22;40985;53.180;5.800;2022-07-06T02:49:23;13.60;99.90
55091;DHT22;40985;53.180;5.800;2022-07-06T02:51:48;13.60;99.90
55091;DHT22;40985;53.180;5.800;2022-07-06T02:54:14;13.50;99.90
55091;DHT22;40985;53.180;5.800;2022-07-06T02:56:40;13.50;99.90
55091;DHT22;40985;53.180;5.800;2022-07-06T02:59:05;13.40;99.90
55091;DHT22;40985;53.180;5.800;2022-07-06T03:01:31;13.30;99.90
55091;DHT22;40985;53.180;5.800;2022-07-06T03:03:56;13.20;99.90
55091;DHT22;40985;53.180;5.800;2022-07-06T03:06:22;13.20;99.90
55091;DHT22;40985;53.180;5.800;2022-07-06T03:08:48;13.20;99.90
55091;DHT22;40985;53.180;5.800;2022-07-06T03:11:13;13.20;99.90
55091;DHT22;40985;53.180;5.800;2022-07-06T03:13:39;13.00;99.90
55091;DHT22;40985;53.180;5.800;2022-07-06T03:16:05;13.00;99.90
55091;DHT22;40985;53.180;5.800;2022-07-06T03:18:30;13.00;99.90
55091;DHT22;40985;53.180;5.800;2022-07-06T03:20:56;12.90;99.90
55091;DHT22;40985;53.180;5.800;2022-07-06T03:23:22;12.90;99.90
55091;DHT22;40985;53.180;5.800;2022-07-06T03:25:47;12.80;99.90
55091;DHT22;40985;53.180;5.800;2022-07-06T03:28:13;12.80;99.90
55091;DHT22;40985;53.180;5.800;2022-07-06T03:30:38;12.80;99.90
55091;DHT22;40985;53.180;5.800;2022-07-06T03:33:04;12.70;99.90
55091;DHT22;40985;53.180;5.800;2022-07-06T03:35:30;12.70;99.90
55091;DHT22;40985;53.180;5.800;2022-07-06T03:37:56;12.70;99.90
55091;DHT22;40985;53.180;5.800;2022-07-06T03:40:21;12.60;99.90
55091;DHT22;40985;53.180;5.800;2022-07-06T03:42:47;12.60;99.90
55091;DHT22;40985;53.180;5.800;2022-07-06T03:45:13;12.50;99.90
55091;DHT22;40985;53.180;5.800;2022-07-06T03:47:38;12.50;99.90
55091;DHT22;40985;53.180;5.800;2022-07-06T03:50:04;12.50;99.90
55091;DHT22;40985;53.180;5.800;2022-07-06T03:52:30;12.40;99.90
55091;DHT22;40985;53.180;5.800;2022-07-06T03:54:56;12.30;99.90
55091;DHT22;40985;53.180;5.800;2022-07-06T03:57:22;12.30;99.90
55091;DHT22;40985;53.180;5.800;2022-07-06T03:59:47;12.20;99.90
55091;DHT22;40985;53.180;5.800;2022-07-06T04:02:13;12.20;99.90
55091;DHT22;40985;53.180;5.800;2022-07-06T04:04:39;12.10;99.90
55091;DHT22;40985;53.180;5.800;2022-07-06T04:07:04;12.10;99.90
55091;DHT22;40985;53.180;5.800;2022-07-06T04:09:30;12.10;99.90
55091;DHT22;40985;53.180;5.800;2022-07-06T04:11:56;12.10;99.90
55091;DHT22;40985;53.180;5.800;2022-07-06T04:14:21;12.10;99.90
55091;DHT22;40985;53.180;5.800;2022-07-06T04:16:47;12.10;99.90
55091;DHT22;40985;53.180;5.800;2022-07-06T04:19:13;12.10;99.90
55091;DHT22;40985;53.180;5.800;2022-07-06T04:21:39;12.20;99.90
55091;DHT22;40985;53.180;5.800;2022-07-06T04:24:05;12.20;99.90
55091;DHT22;40985;53.180;5.800;2022-07-06T04:26:31;12.20;99.90
55091;DHT22;40985;53.180;5.800;2022-07-06T04:28:56;12.20;99.90
55091;DHT22;40985;53.180;5.800;2022-07-06T04:31:22;12.30;99.90
55091;DHT22;40985;53.180;5.800;2022-07-06T04:33:48;12.20;99.90
55091;DHT22;40985;53.180;5.800;2022-07-06T04:36:13;12.20;99.90
55091;DHT22;40985;53.180;5.800;2022-07-06T04:38:39;12.20;99.90
55091;DHT22;40985;53.180;5.800;2022-07-06T04:41:05;12.30;99.90
55091;DHT22;40985;53.180;5.800;2022-07-06T04:43:30;12.30;99.90
55091;DHT22;40985;53.180;5.800;2022-07-06T04:45:56;12.30;99.90
55091;DHT22;40985;53.180;5.800;2022-07-06T04:48:22;12.30;99.90
55091;DHT22;40985;53.180;5.800;2022-07-06T04:50:47;12.30;99.90
55091;DHT22;40985;53.180;5.800;2022-07-06T04:53:13;12.40;99.90
55091;DHT22;40985;53.180;5.800;2022-07-06T04:55:39;12.40;99.90
55091;DHT22;40985;53.180;5.800;2022-07-06T04:58:04;12.40;99.90
55091;DHT22;40985;53.180;5.800;2022-07-06T05:00:30;12.40;99.90
55091;DHT22;40985;53.180;5.800;2022-07-06T05:02:56;12.50;99.90
55091;DHT22;40985;53.180;5.800;2022-07-06T05:05:22;12.50;99.90
55091;DHT22;40985;53.180;5.800;2022-07-06T05:07:48;12.60;99.90
55091;DHT22;40985;53.180;5.800;2022-07-06T05:10:14;12.70;99.90
55091;DHT22;40985;53.180;5.800;2022-07-06T05:12:40;12.80;99.90
55091;DHT22;40985;53.180;5.800;2022-07-06T05:15:06;12.90;99.90
55091;DHT22;40985;53.180;5.800;2022-07-06T05:17:32;13.00;99.90
55091;DHT22;40985;53.180;5.800;2022-07-06T05:19:58;13.10;99.90
55091;DHT22;40985;53.180;5.800;2022-07-06T05:22:24;13.20;99.90
55091;DHT22;40985;53.180;5.800;2022-07-06T05:24:51;13.30;99.90
55091;DHT22;40985;53.180;5.800;2022-07-06T05:27:17;13.50;99.90
55091;DHT22;40985;53.180;5.800;2022-07-06T05:29:42;13.60;99.90
55091;DHT22;40985;53.180;5.800;2022-07-06T05:32:08;13.80;99.90
55091;DHT22;40985;53.180;5.800;2022-07-06T05:34:34;14.00;99.90
55091;DHT22;40985;53.180;5.800;2022-07-06T05:37:02;14.00;99.90
55091;DHT22;40985;53.180;5.800;2022-07-06T05:39:29;14.10;99.90
55091;DHT22;40985;53.180;5.800;2022-07-06T05:41:54;14.20;99.90
55091;DHT22;40985;53.180;5.800;2022-07-06T05:44:20;14.20;99.90
55091;DHT22;40985;53.180;5.800;2022-07-06T05:46:46;14.30;99.90
55091;DHT22;40985;53.180;5.800;2022-07-06T05:49:11;14.30;99.90
55091;DHT22;40985;53.180;5.800;2022-07-06T05:51:55;14.30;99.90
55091;DHT22;40985;53.180;5.800;2022-07-06T05:54:21;14.30;99.90
55091;DHT22;40985;53.180;5.800;2022-07-06T05:56:47;14.30;99.90
55091;DHT22;40985;53.180;5.800;2022-07-06T05:59:12;14.20;99.90
55091;DHT22;40985;53.180;5.800;2022-07-06T06:01:38;14.20;99.90
55091;DHT22;40985;53.180;5.800;2022-07-06T06:04:04;14.20;99.90
55091;DHT22;40985;53.180;5.800;2022-07-06T06:06:29;14.20;99.90
55091;DHT22;40985;53.180;5.800;2022-07-06T06:08:56;14.40;99.90
55091;DHT22;40985;53.180;5.800;2022-07-06T06:11:22;14.50;99.90
55091;DHT22;40985;53.180;5.800;2022-07-06T06:13:48;14.60;99.90
55091;DHT22;40985;53.180;5.800;2022-07-06T06:16:14;14.60;99.90
55091;DHT22;40985;53.180;5.800;2022-07-06T06:18:41;14.70;99.90
55091;DHT22;40985;53.180;5.800;2022-07-06T06:21:06;14.80;99.90
55091;DHT22;40985;53.180;5.800;2022-07-06T06:23:32;14.70;99.90
55091;DHT22;40985;53.180;5.800;2022-07-06T06:25:58;14.70;99.90
55091;DHT22;40985;53.180;5.800;2022-07-06T06:28:23;14.70;99.90
55091;DHT22;40985;53.180;5.800;2022-07-06T06:30:49;14.80;99.90
55091;DHT22;40985;53.180;5.800;2022-07-06T06:33:17;14.80;99.90
55091;DHT22;40985;53.180;5.800;2022-07-06T06:35:53;14.80;99.90
55091;DHT22;40985;53.180;5.800;2022-07-06T06:38:21;14.80;99.90
55091;DHT22;40985;53.180;5.800;2022-07-06T06:40:47;14.90;99.90
55091;DHT22;40985;53.180;5.800;2022-07-06T06:43:13;14.90;99.90
55091;DHT22;40985;53.180;5.800;2022-07-06T06:45:39;14.90;99.90
55091;DHT22;40985;53.180;5.800;2022-07-06T06:48:04;15.00;99.90
55091;DHT22;40985;53.180;5.800;2022-07-06T06:50:30;15.00;99.90
55091;DHT22;40985;53.180;5.800;2022-07-06T06:52:56;15.00;99.90
55091;DHT22;40985;53.180;5.800;2022-07-06T06:55:21;15.10;99.90
55091;DHT22;40985;53.180;5.800;2022-07-06T06:57:47;15.20;99.90
55091;DHT22;40985;53.180;5.800;2022-07-06T07:00:13;15.30;99.90
55091;DHT22;40985;53.180;5.800;2022-07-06T07:02:39;15.50;99.90
55091;DHT22;40985;53.180;5.800;2022-07-06T07:05:06;15.50;99.90
55091;DHT22;40985;53.180;5.800;2022-07-06T07:07:32;15.60;99.90
55091;DHT22;40985;53.180;5.800;2022-07-06T07:09:58;15.50;99.90
55091;DHT22;40985;53.180;5.800;2022-07-06T07:12:24;15.50;99.90
55091;DHT22;40985;53.180;5.800;2022-07-06T07:14:49;15.50;99.90
55091;DHT22;40985;53.180;5.800;2022-07-06T07:17:15;15.40;99.90
55091;DHT22;40985;53.180;5.800;2022-07-06T07:19:41;15.50;99.90
55091;DHT22;40985;53.180;5.800;2022-07-06T07:22:06;15.50;99.90
55091;DHT22;40985;53.180;5.800;2022-07-06T07:24:32;15.60;99.90
55091;DHT22;40985;53.180;5.800;2022-07-06T07:26:58;15.60;99.90
55091;DHT22;40985;53.180;5.800;2022-07-06T07:29:24;15.60;99.90
55091;DHT22;40985;53.180;5.800;2022-07-06T07:31:49;15.60;99.90
55091;DHT22;40985;53.180;5.800;2022-07-06T07:34:15;15.50;99.90
55091;DHT22;40985;53.180;5.800;2022-07-06T07:36:41;15.40;99.90
55091;DHT22;40985;53.180;5.800;2022-07-06T07:39:07;15.30;99.90
55091;DHT22;40985;53.180;5.800;2022-07-06T07:41:33;15.30;99.90
55091;DHT22;40985;53.180;5.800;2022-07-06T07:43:58;15.40;99.90
55091;DHT22;40985;53.180;5.800;2022-07-06T07:46:24;15.50;99.90
55091;DHT22;40985;53.180;5.800;2022-07-06T07:48:50;15.60;99.90
55091;DHT22;40985;53.180;5.800;2022-07-06T07:51:15;15.80;99.90
55091;DHT22;40985;53.180;5.800;2022-07-06T07:53:41;16.00;99.90
55091;DHT22;40985;53.180;5.800;2022-07-06T07:56:07;16.10;99.90
55091;DHT22;40985;53.180;5.800;2022-07-06T07:58:32;16.10;99.90
55091;DHT22;40985;53.180;5.800;2022-07-06T08:00:58;15.90;99.90
55091;DHT22;40985;53.180;5.800;2022-07-06T08:03:24;16.10;99.90
55091;DHT22;40985;53.180;5.800;2022-07-06T08:05:49;16.30;99.90
55091;DHT22;40985;53.180;5.800;2022-07-06T08:08:16;16.20;99.90
55091;DHT22;40985;53.180;5.800;2022-07-06T08:10:41;16.30;99.90
55091;DHT22;40985;53.180;5.800;2022-07-06T08:13:07;16.20;99.90
55091;DHT22;40985;53.180;5.800;2022-07-06T08:15:34;16.30;99.90
55091;DHT22;40985;53.180;5.800;2022-07-06T08:18:00;16.40;99.90
55091;DHT22;40985;53.180;5.800;2022-07-06T08:20:25;16.50;99.90
55091;DHT22;40985;53.180;5.800;2022-07-06T08:22:51;16.50;99.90
55091;DHT22;40985;53.180;5.800;2022-07-06T08:25:17;16.30;99.90
55091;DHT22;40985;53.180;5.800;2022-07-06T08:27:43;16.30;99.90
55091;DHT22;40985;53.180;5.800;2022-07-06T08:30:09;16.00;99.90
55091;DHT22;40985;53.180;5.800;2022-07-06T08:32:42;16.00;99.90
55091;DHT22;40985;53.180;5.800;2022-07-06T08:35:09;16.00;99.90
55091;DHT22;40985;53.180;5.800;2022-07-06T08:37:35;16.10;99.90
55091;DHT22;40985;53.180;5.800;2022-07-06T08:40:01;16.40;99.90
55091;DHT22;40985;53.180;5.800;2022-07-06T08:42:30;16.50;99.90
55091;DHT22;40985;53.180;5.800;2022-07-06T08:44:59;16.50;99.90
55091;DHT22;40985;53.180;5.800;2022-07-06T08:47:26;16.70;99.90
55091;DHT22;40985;53.180;5.800;2022-07-06T08:49:53;16.80;99.90
55091;DHT22;40985;53.180;5.800;2022-07-06T08:52:19;16.90;99.90
55091;DHT22;40985;53.180;5.800;2022-07-06T08:54:45;17.10;99.90
55091;DHT22;40985;53.180;5.800;2022-07-06T08:57:11;17.10;99.90
55091;DHT22;40985;53.180;5.800;2022-07-06T08:59:38;16.60;99.90
55091;DHT22;40985;53.180;5.800;2022-07-06T09:02:04;17.00;99.90
55091;DHT22;40985;53.180;5.800;2022-07-06T09:04:32;17.20;99.90
55091;DHT22;40985;53.180;5.800;2022-07-06T09:06:58;17.50;99.90
55091;DHT22;40985;53.180;5.800;2022-07-06T09:09:24;17.40;99.90
55091;DHT22;40985;53.180;5.800;2022-07-06T09:11:51;17.30;99.90
55091;DHT22;40985;53.180;5.800;2022-07-06T09:14:18;17.30;99.90
55091;DHT22;40985;53.180;5.800;2022-07-06T09:16:45;17.40;99.90
55091;DHT22;40985;53.180;5.800;2022-07-06T09:19:12;17.40;99.90
55091;DHT22;40985;53.180;5.800;2022-07-06T09:21:39;17.60;99.90
55091;DHT22;40985;53.180;5.800;2022-07-06T09:24:09;17.70;99.90
55091;DHT22;40985;53.180;5.800;2022-07-06T09:26:35;17.90;99.90
55091;DHT22;40985;53.180;5.800;2022-07-06T09:29:00;18.20;99.90
55091;DHT22;40985;53.180;5.800;2022-07-06T09:31:26;18.00;99.90
55091;DHT22;40985;53.180;5.800;2022-07-06T09:33:57;18.10;99.90
55091;DHT22;40985;53.180;5.800;2022-07-06T09:41:40;18.00;99.90
55091;DHT22;40985;53.180;5.800;2022-07-06T09:44:06;17.90;99.90
55091;DHT22;40985;53.180;5.800;2022-07-06T09:46:42;17.90;99.90
55091;DHT22;40985;53.180;5.800;2022-07-06T09:49:09;17.80;99.90
55091;DHT22;40985;53.180;5.800;2022-07-06T09:51:38;17.80;99.90
55091;DHT22;40985;53.180;5.800;2022-07-06T09:54:06;17.80;99.90
55091;DHT22;40985;53.180;5.800;2022-07-06T09:56:40;18.00;99.90
55091;DHT22;40985;53.180;5.800;2022-07-06T09:59:10;18.10;99.90
55091;DHT22;40985;53.180;5.800;2022-07-06T10:01:39;18.10;99.90
55091;DHT22;40985;53.180;5.800;2022-07-06T10:04:06;18.20;99.90
55091;DHT22;40985;53.180;5.800;2022-07-06T10:06:32;18.30;99.90
55091;DHT22;40985;53.180;5.800;2022-07-06T10:08:58;18.00;99.90
55091;DHT22;40985;53.180;5.800;2022-07-06T10:11:25;18.10;99.90
55091;DHT22;40985;53.180;5.800;2022-07-06T10:13:56;18.50;99.90
55091;DHT22;40985;53.180;5.800;2022-07-06T10:16:23;18.80;99.90
55091;DHT22;40985;53.180;5.800;2022-07-06T10:18:51;18.50;99.90
55091;DHT22;40985;53.180;5.800;2022-07-06T10:21:20;18.70;99.90
55091;DHT22;40985;53.180;5.800;2022-07-06T10:23:47;18.80;99.90
55091;DHT22;40985;53.180;5.800;2022-07-06T10:26:14;19.00;99.90
55091;DHT22;40985;53.180;5.800;2022-07-06T10:28:41;19.20;99.90
55091;DHT22;40985;53.180;5.800;2022-07-06T10:31:08;19.30;99.90
55091;DHT22;40985;53.180;5.800;2022-07-06T10:33:35;19.20;99.90
55091;DHT22;40985;53.180;5.800;2022-07-06T10:36:01;19.10;99.90
55091;DHT22;40985;53.180;5.800;2022-07-06T10:38:34;19.40;99.90
55091;DHT22;40985;53.180;5.800;2022-07-06T10:41:08;19.30;99.90
55091;DHT22;40985;53.180;5.800;2022-07-06T10:43:45;19.00;99.90
55091;DHT22;40985;53.180;5.800;2022-07-06T10:46:13;18.90;99.90
55091;DHT22;40985;53.180;5.800;2022-07-06T10:48:44;18.90;99.90
55091;DHT22;40985;53.180;5.800;2022-07-06T10:51:25;19.00;99.90
55091;DHT22;40985;53.180;5.800;2022-07-06T10:54:04;19.10;99.90
55091;DHT22;40985;53.180;5.800;2022-07-06T10:56:37;19.40;99.90
55091;DHT22;40985;53.180;5.800;2022-07-06T10:59:09;19.50;99.90
55091;DHT22;40985;53.180;5.800;2022-07-06T11:01:35;19.70;99.90
55091;DHT22;40985;53.180;5.800;2022-07-06T11:06:30;18.90;99.90
55091;DHT22;40985;53.180;5.800;2022-07-06T11:09:07;19.20;99.90
55091;DHT22;40985;53.180;5.800;2022-07-06T11:14:01;19.70;99.90
55091;DHT22;40985;53.180;5.800;2022-07-06T11:16:32;19.70;99.90
55091;DHT22;40985;53.180;5.800;2022-07-06T11:19:06;20.00;99.90
55091;DHT22;40985;53.180;5.800;2022-07-06T11:24:11;20.30;99.90
55091;DHT22;40985;53.180;5.800;2022-07-06T11:26:37;20.50;99.90
55091;DHT22;40985;53.180;5.800;2022-07-06T11:29:04;20.80;99.90
55091;DHT22;40985;53.180;5.800;2022-07-06T11:31:34;20.80;99.90
55091;DHT22;40985;53.180;5.800;2022-07-06T11:34:00;20.60;99.90
55091;DHT22;40985;53.180;5.800;2022-07-06T11:36:26;20.50;99.90
55091;DHT22;40985;53.180;5.800;2022-07-06T11:38:52;20.90;99.90
55091;DHT22;40985;53.180;5.800;2022-07-06T11:41:17;20.50;99.90
55091;DHT22;40985;53.180;5.800;2022-07-06T11:43:45;20.50;99.90
55091;DHT22;40985;53.180;5.800;2022-07-06T11:48:52;20.50;99.90
55091;DHT22;40985;53.180;5.800;2022-07-06T11:51:18;20.30;99.90
55091;DHT22;40985;53.180;5.800;2022-07-06T11:53:52;19.80;99.90
55091;DHT22;40985;53.180;5.800;2022-07-06T11:56:18;19.90;99.90
55091;DHT22;40985;53.180;5.800;2022-07-06T11:58:49;19.90;99.90
55091;DHT22;40985;53.180;5.800;2022-07-06T12:01:15;19.70;99.90
55091;DHT22;40985;53.180;5.800;2022-07-06T12:03:42;19.70;99.90
55091;DHT22;40985;53.180;5.800;2022-07-06T12:06:17;19.60;99.90
55091;DHT22;40985;53.180;5.800;2022-07-06T12:08:48;19.40;99.90
55091;DHT22;40985;53.180;5.800;2022-07-06T12:11:34;19.30;99.90
55091;DHT22;40985;53.180;5.800;2022-07-06T12:14:16;19.50;99.90
55091;DHT22;40985;53.180;5.800;2022-07-06T12:16:43;19.10;99.90
55091;DHT22;40985;53.180;5.800;2022-07-06T12:19:09;19.10;99.90
55091;DHT22;40985;53.180;5.800;2022-07-06T12:21:42;19.00;99.90
55091;DHT22;40985;53.180;5.800;2022-07-06T12:24:08;18.70;99.90
55091;DHT22;40985;53.180;5.800;2022-07-06T12:26:39;18.80;99.90
55091;DHT22;40985;53.180;5.800;2022-07-06T12:29:07;18.70;99.90
55091;DHT22;40985;53.180;5.800;2022-07-06T12:34:12;18.70;99.90
55091;DHT22;40985;53.180;5.800;2022-07-06T12:36:48;18.80;99.90
55091;DHT22;40985;53.180;5.800;2022-07-06T12:39:16;18.90;99.90
55091;DHT22;40985;53.180;5.800;2022-07-06T12:41:49;18.80;99.90
55091;DHT22;40985;53.180;5.800;2022-07-06T12:44:16;19.20;99.90
55091;DHT22;40985;53.180;5.800;2022-07-06T12:46:42;19.50;99.90
55091;DHT22;40985;53.180;5.800;2022-07-06T12:49:20;19.50;99.90
55091;DHT22;40985;53.180;5.800;2022-07-06T12:52:09;19.50;99.90
55091;DHT22;40985;53.180;5.800;2022-07-06T12:59:30;19.40;99.90
55091;DHT22;40985;53.180;5.800;2022-07-06T13:01:56;19.00;99.90
55091;DHT22;40985;53.180;5.800;2022-07-06T13:04:30;19.10;99.90
55091;DHT22;40985;53.180;5.800;2022-07-06T13:06:57;18.90;99.90
55091;DHT22;40985;53.180;5.800;2022-07-06T13:09:23;19.00;99.90
55091;DHT22;40985;53.180;5.800;2022-07-06T13:11:49;18.90;99.90
55091;DHT22;40985;53.180;5.800;2022-07-06T13:14:15;18.50;99.90
55091;DHT22;40985;53.180;5.800;2022-07-06T13:16:43;18.50;99.90
55091;DHT22;40985;53.180;5.800;2022-07-06T13:19:09;18.40;99.90
55091;DHT22;40985;53.180;5.800;2022-07-06T13:21:35;18.40;99.90
55091;DHT22;40985;53.180;5.800;2022-07-06T13:24:01;18.40;99.90
55091;DHT22;40985;53.180;5.800;2022-07-06T13:26:26;18.30;99.90
55091;DHT22;40985;53.180;5.800;2022-07-06T13:28:52;18.30;99.90
55091;DHT22;40985;53.180;5.800;2022-07-06T13:31:18;18.10;99.90
55091;DHT22;40985;53.180;5.800;2022-07-06T13:33:43;18.20;99.90
55091;DHT22;40985;53.180;5.800;2022-07-06T13:36:09;18.10;99.90
55091;DHT22;40985;53.180;5.800;2022-07-06T13:38:35;18.10;99.90
55091;DHT22;40985;53.180;5.800;2022-07-06T13:41:01;18.00;99.90
55091;DHT22;40985;53.180;5.800;2022-07-06T13:43:27;18.00;99.90
55091;DHT22;40985;53.180;5.800;2022-07-06T13:46:03;17.80;99.90
55091;DHT22;40985;53.180;5.800;2022-07-06T13:48:30;17.50;99.90
55091;DHT22;40985;53.180;5.800;2022-07-06T13:50:55;17.40;99.90
55091;DHT22;40985;53.180;5.800;2022-07-06T13:53:21;17.30;99.90
55091;DHT22;40985;53.180;5.800;2022-07-06T13:55:47;17.20;99.90
55091;DHT22;40985;53.180;5.800;2022-07-06T13:58:12;17.20;99.90
55091;DHT22;40985;53.180;5.800;2022-07-06T14:00:38;17.20;99.90
55091;DHT22;40985;53.180;5.800;2022-07-06T14:03:04;17.30;99.90
55091;DHT22;40985;53.180;5.800;2022-07-06T14:05:30;17.40;99.90
55091;DHT22;40985;53.180;5.800;2022-07-06T14:07:56;17.50;99.90
55091;DHT22;40985;53.180;5.800;2022-07-06T14:10:21;17.50;99.90
55091;DHT22;40985;53.180;5.800;2022-07-06T14:12:47;17.50;99.90
55091;DHT22;40985;53.180;5.800;2022-07-06T14:15:13;17.20;99.90
55091;DHT22;40985;53.180;5.800;2022-07-06T14:17:38;17.00;99.90
55091;DHT22;40985;53.180;5.800;2022-07-06T14:20:04;17.00;99.90
55091;DHT22;40985;53.180;5.800;2022-07-06T14:22:30;16.60;99.90
55091;DHT22;40985;53.180;5.800;2022-07-06T14:24:56;16.70;99.90
55091;DHT22;40985;53.180;5.800;2022-07-06T14:27:21;16.70;99.90
55091;DHT22;40985;53.180;5.800;2022-07-06T14:29:47;16.80;99.90
55091;DHT22;40985;53.180;5.800;2022-07-06T14:32:13;17.00;99.90
55091;DHT22;40985;53.180;5.800;2022-07-06T14:34:38;16.80;99.90
55091;DHT22;40985;53.180;5.800;2022-07-06T14:37:04;16.70;99.90
55091;DHT22;40985;53.180;5.800;2022-07-06T14:39:30;16.60;99.90
55091;DHT22;40985;53.180;5.800;2022-07-06T14:41:55;16.30;99.90
55091;DHT22;40985;53.180;5.800;2022-07-06T14:44:21;16.20;99.90
55091;DHT22;40985;53.180;5.800;2022-07-06T14:46:47;16.10;99.90
55091;DHT22;40985;53.180;5.800;2022-07-06T14:49:12;16.10;99.90
55091;DHT22;40985;53.180;5.800;2022-07-06T14:51:39;16.00;99.90
55091;DHT22;40985;53.180;5.800;2022-07-06T14:54:04;16.10;99.90
55091;DHT22;40985;53.180;5.800;2022-07-06T14:56:30;16.20;99.90
55091;DHT22;40985;53.180;5.800;2022-07-06T14:58:56;16.30;99.90
55091;DHT22;40985;53.180;5.800;2022-07-06T15:01:21;16.40;99.90
55091;DHT22;40985;53.180;5.800;2022-07-06T15:03:47;16.50;99.90
55091;DHT22;40985;53.180;5.800;2022-07-06T15:06:12;16.50;99.90
55091;DHT22;40985;53.180;5.800;2022-07-06T15:08:38;16.50;99.90
55091;DHT22;40985;53.180;5.800;2022-07-06T15:11:04;16.50;99.90
55091;DHT22;40985;53.180;5.800;2022-07-06T15:13:29;16.40;99.90
55091;DHT22;40985;53.180;5.800;2022-07-06T15:15:55;16.40;99.90
55091;DHT22;40985;53.180;5.800;2022-07-06T15:18:21;16.30;99.90
55091;DHT22;40985;53.180;5.800;2022-07-06T15:20:46;16.20;99.90
55091;DHT22;40985;53.180;5.800;2022-07-06T15:23:12;16.20;99.90
55091;DHT22;40985;53.180;5.800;2022-07-06T15:25:38;16.20;99.90
55091;DHT22;40985;53.180;5.800;2022-07-06T15:28:04;16.20;99.90
55091;DHT22;40985;53.180;5.800;2022-07-06T15:30:29;16.00;99.90
55091;DHT22;40985;53.180;5.800;2022-07-06T15:32:58;16.00;99.90
55091;DHT22;40985;53.180;5.800;2022-07-06T15:35:24;16.00;99.90
55091;DHT22;40985;53.180;5.800;2022-07-06T15:37:50;15.90;99.90
55091;DHT22;40985;53.180;5.800;2022-07-06T15:40:19;15.80;99.90
55091;DHT22;40985;53.180;5.800;2022-07-06T15:42:53;15.80;99.90
55091;DHT22;40985;53.180;5.800;2022-07-06T15:45:21;15.70;99.90
55091;DHT22;40985;53.180;5.800;2022-07-06T15:47:51;15.60;99.90
55091;DHT22;40985;53.180;5.800;2022-07-06T15:50:17;15.60;99.90
55091;DHT22;40985;53.180;5.800;2022-07-06T15:52:45;15.60;99.90
55091;DHT22;40985;53.180;5.800;2022-07-06T15:55:11;15.50;99.90
55091;DHT22;40985;53.180;5.800;2022-07-06T15:57:37;15.50;99.90